sensor_id;sensor_type;location;lat;lon;timestamp;pressure;altitude;pressure_sealevel;temperature;humidity
75627;BME280;67372;49.404;11.034;2023-04-06T00:01:29;98479.63;;;-0.60;61.28
75627;BME280;67372;49.404;11.034;2023-04-06T00:03:56;98485.28;;;-0.65;62.19
75627;BME280;67372;49.404;11.034;2023-04-06T00:06:23;98475.25;;;-0.70;62.91
75627;BME280;67372;49.404;11.034;2023-04-06T00:08:49;98480.59;;;-0.71;62.81
75627;BME280;67372;49.404;11.034;2023-04-06T00:11:16;98474.53;;;-0.72;62.27
75627;BME280;67372;49.404;11.034;2023-04-06T00:13:43;98483.22;;;-0.71;63.77
75627;BME280;67372;49.404;11.034;2023-04-06T00:16:09;98477.16;;;-0.72;62.80
75627;BME280;67372;49.404;11.034;2023-04-06T00:18:36;98477.97;;;-0.71;63.01
75627;BME280;67372;49.404;11.034;2023-04-06T00:21:03;98482.38;;;-0.72;62.52
75627;BME280;67372;49.404;11.034;2023-04-06T00:23:29;98472.88;;;-0.73;64.96
75627;BME280;67372;49.404;11.034;2023-04-06T00:25:56;98470.41;;;-0.74;63.43
75627;BME280;67372;49.404;11.034;2023-04-06T00:28:23;98470.81;;;-0.79;67.26
75627;BME280;67372;49.404;11.034;2023-04-06T00:30:49;98472.88;;;-0.82;65.93
75627;BME280;67372;49.404;11.034;2023-04-06T00:33:16;98473.31;;;-0.87;69.16
75627;BME280;67372;49.404;11.034;2023-04-06T00:35:42;98470.00;;;-0.89;69.18
75627;BME280;67372;49.404;11.034;2023-04-06T00:38:09;98461.59;;;-0.93;66.49
75627;BME280;67372;49.404;11.034;2023-04-06T00:40:36;98469.59;;;-0.94;67.57
75627;BME280;67372;49.404;11.034;2023-04-06T00:43:02;98461.84;;;-0.96;66.88
75627;BME280;67372;49.404;11.034;2023-04-06T00:45:29;98468.19;;;-0.98;68.56
75627;BME280;67372;49.404;11.034;2023-04-06T00:47:56;98461.28;;;-0.99;68.20
75627;BME280;67372;49.404;11.034;2023-04-06T00:50:22;98465.72;;;-1.00;69.01
75627;BME280;67372;49.404;11.034;2023-04-06T00:52:49;98458.00;;;-1.01;67.76
75627;BME280;67372;49.404;11.034;2023-04-06T00:55:17;98459.22;;;-1.05;69.41
75627;BME280;67372;49.404;11.034;2023-04-06T00:57:43;98456.75;;;-1.07;68.07
75627;BME280;67372;49.404;11.034;2023-04-06T01:00:10;98466.41;;;-1.07;70.20
75627;BME280;67372;49.404;11.034;2023-04-06T01:02:38;98449.72;;;-1.06;67.00
75627;BME280;67372;49.404;11.034;2023-04-06T01:05:05;98454.69;;;-1.03;66.98
75627;BME280;67372;49.404;11.034;2023-04-06T01:07:32;98456.34;;;-1.02;68.88
75627;BME280;67372;49.404;11.034;2023-04-06T01:09:58;98455.78;;;-1.06;69.43
75627;BME280;67372;49.404;11.034;2023-04-06T01:12:25;98451.66;;;-1.08;68.08
75627;BME280;67372;49.404;11.034;2023-04-06T01:14:51;98452.50;;;-1.08;67.51
75627;BME280;67372;49.404;11.034;2023-04-06T01:17:17;98454.97;;;-1.06;67.66
75627;BME280;67372;49.404;11.034;2023-04-06T01:19:44;98448.22;;;-1.09;69.38
75627;BME280;67372;49.404;11.034;2023-04-06T01:22:15;98456.34;;;-1.12;69.09
75627;BME280;67372;49.404;11.034;2023-04-06T01:24:42;98452.75;;;-1.11;66.00
75627;BME280;67372;49.404;11.034;2023-04-06T01:27:09;98446.41;;;-1.08;67.44
75627;BME280;67372;49.404;11.034;2023-04-06T01:29:35;98446.69;;;-1.11;68.13
75627;BME280;67372;49.404;11.034;2023-04-06T01:32:01;98442.56;;;-1.14;67.60
75627;BME280;67372;49.404;11.034;2023-04-06T01:34:28;98436.50;;;-1.14;67.76
75627;BME280;67372;49.404;11.034;2023-04-06T01:36:54;98449.59;;;-1.14;66.03
75627;BME280;67372;49.404;11.034;2023-04-06T01:39:21;98439.81;;;-1.12;68.01
75627;BME280;67372;49.404;11.034;2023-04-06T01:41:47;98440.91;;;-1.15;67.87
75627;BME280;67372;49.404;11.034;2023-04-06T01:44:16;98434.16;;;-1.17;69.36
75627;BME280;67372;49.404;11.034;2023-04-06T01:46:43;98434.41;;;-1.20;70.14
75627;BME280;67372;49.404;11.034;2023-04-06T01:49:09;98432.75;;;-1.21;67.56
75627;BME280;67372;49.404;11.034;2023-04-06T01:51:35;98439.78;;;-1.22;67.26
75627;BME280;67372;49.404;11.034;2023-04-06T01:54:02;98442.53;;;-1.24;69.82
75627;BME280;67372;49.404;11.034;2023-04-06T01:56:28;98433.88;;;-1.24;69.01
75627;BME280;67372;49.404;11.034;2023-04-06T01:58:55;98436.47;;;-1.24;67.90
75627;BME280;67372;49.404;11.034;2023-04-06T02:01:21;98436.75;;;-1.27;69.15
75627;BME280;67372;49.404;11.034;2023-04-06T02:03:48;98438.00;;;-1.31;69.70
75627;BME280;67372;49.404;11.034;2023-04-06T02:06:14;98440.06;;;-1.35;70.00
75627;BME280;67372;49.404;11.034;2023-04-06T02:08:40;98430.56;;;-1.36;68.97
75627;BME280;67372;49.404;11.034;2023-04-06T02:11:07;98430.44;;;-1.34;68.32
75627;BME280;67372;49.404;11.034;2023-04-06T02:13:33;98434.16;;;-1.37;67.99
75627;BME280;67372;49.404;11.034;2023-04-06T02:16:00;98431.66;;;-1.38;68.47
75627;BME280;67372;49.404;11.034;2023-04-06T02:18:26;98433.59;;;-1.40;68.11
75627;BME280;67372;49.404;11.034;2023-04-06T02:20:52;98430.25;;;-1.42;67.92
75627;BME280;67372;49.404;11.034;2023-04-06T02:23:19;98441.56;;;-1.42;68.72
75627;BME280;67372;49.404;11.034;2023-04-06T02:25:45;98433.97;;;-1.45;67.55
75627;BME280;67372;49.404;11.034;2023-04-06T02:28:11;98429.56;;;-1.44;69.47
75627;BME280;67372;49.404;11.034;2023-04-06T02:30:38;98430.53;;;-1.45;67.22
75627;BME280;67372;49.404;11.034;2023-04-06T02:33:04;98433.72;;;-1.42;66.65
75627;BME280;67372;49.404;11.034;2023-04-06T02:35:31;98431.94;;;-1.41;66.96
75627;BME280;67372;49.404;11.034;2023-04-06T02:37:57;98429.19;;;-1.40;66.68
75627;BME280;67372;49.404;11.034;2023-04-06T02:40:24;98430.69;;;-1.37;65.29
75627;BME280;67372;49.404;11.034;2023-04-06T02:42:50;98434.00;;;-1.35;65.31
75627;BME280;67372;49.404;11.034;2023-04-06T02:45:16;98429.59;;;-1.35;64.69
75627;BME280;67372;49.404;11.034;2023-04-06T02:47:43;98433.03;;;-1.34;64.59
75627;BME280;67372;49.404;11.034;2023-04-06T02:50:09;98426.03;;;-1.34;65.17
75627;BME280;67372;49.404;11.034;2023-04-06T02:52:35;98433.72;;;-1.32;65.00
75627;BME280;67372;49.404;11.034;2023-04-06T02:55:02;98427.94;;;-1.36;65.14
75627;BME280;67372;49.404;11.034;2023-04-06T02:57:28;98432.63;;;-1.39;68.26
75627;BME280;67372;49.404;11.034;2023-04-06T02:59:55;98434.38;;;-1.49;68.82
75627;BME280;67372;49.404;11.034;2023-04-06T03:02:21;98426.94;;;-1.54;68.39
75627;BME280;67372;49.404;11.034;2023-04-06T03:04:47;98437.94;;;-1.60;67.94
75627;BME280;67372;49.404;11.034;2023-04-06T03:07:14;98430.50;;;-1.65;66.80
75627;BME280;67372;49.404;11.034;2023-04-06T03:09:40;98427.91;;;-1.65;69.52
75627;BME280;67372;49.404;11.034;2023-04-06T03:12:06;98433.22;;;-1.66;66.93
75627;BME280;67372;49.404;11.034;2023-04-06T03:14:35;98435.75;;;-1.65;70.66
75627;BME280;67372;49.404;11.034;2023-04-06T03:17:01;98434.19;;;-1.67;67.17
75627;BME280;67372;49.404;11.034;2023-04-06T03:19:28;98433.22;;;-1.66;68.26
75627;BME280;67372;49.404;11.034;2023-04-06T03:21:54;98433.38;;;-1.68;67.54
75627;BME280;67372;49.404;11.034;2023-04-06T03:24:20;98432.66;;;-1.70;68.22
75627;BME280;67372;49.404;11.034;2023-04-06T03:26:46;98439.00;;;-1.72;67.63
75627;BME280;67372;49.404;11.034;2023-04-06T03:29:13;98435.41;;;-1.71;66.51
75627;BME280;67372;49.404;11.034;2023-04-06T03:31:39;98437.22;;;-1.72;67.35
75627;BME280;67372;49.404;11.034;2023-04-06T03:34:06;98433.22;;;-1.76;67.73
75627;BME280;67372;49.404;11.034;2023-04-06T03:36:33;98440.22;;;-1.76;66.90
75627;BME280;67372;49.404;11.034;2023-04-06T03:39:00;98437.63;;;-1.76;68.74
75627;BME280;67372;49.404;11.034;2023-04-06T03:41:26;98436.09;;;-1.79;68.01
75627;BME280;67372;49.404;11.034;2023-04-06T03:43:52;98434.56;;;-1.81;69.38
75627;BME280;67372;49.404;11.034;2023-04-06T03:46:19;98444.59;;;-1.87;71.82
75627;BME280;67372;49.404;11.034;2023-04-06T03:48:48;98450.94;;;-1.89;70.02
75627;BME280;67372;49.404;11.034;2023-04-06T03:51:14;98441.53;;;-1.92;68.99
75627;BME280;67372;49.404;11.034;2023-04-06T03:53:41;98439.88;;;-1.93;68.70
75627;BME280;67372;49.404;11.034;2023-04-06T03:56:07;98441.53;;;-1.92;67.48
75627;BME280;67372;49.404;11.034;2023-04-06T03:58:33;98447.47;;;-1.90;66.60
75627;BME280;67372;49.404;11.034;2023-04-06T04:00:59;98446.53;;;-1.89;67.78
75627;BME280;67372;49.404;11.034;2023-04-06T04:03:26;98448.41;;;-1.91;67.61
75627;BME280;67372;49.404;11.034;2023-04-06T04:05:53;98445.81;;;-1.91;67.31
75627;BME280;67372;49.404;11.034;2023-04-06T04:08:19;98451.03;;;-1.91;69.53
75627;BME280;67372;49.404;11.034;2023-04-06T04:10:46;98450.59;;;-1.96;68.09
75627;BME280;67372;49.404;11.034;2023-04-06T04:13:12;98458.72;;;-1.99;70.31
75627;BME280;67372;49.404;11.034;2023-04-06T04:15:39;98448.53;;;-2.02;69.13
75627;BME280;67372;49.404;11.034;2023-04-06T04:18:05;98445.91;;;-2.02;68.88
75627;BME280;67372;49.404;11.034;2023-04-06T04:20:31;98451.28;;;-2.03;68.61
75627;BME280;67372;49.404;11.034;2023-04-06T04:22:58;98456.50;;;-2.03;67.71
75627;BME280;67372;49.404;11.034;2023-04-06T04:25:24;98449.63;;;-2.04;69.99
75627;BME280;67372;49.404;11.034;2023-04-06T04:27:50;98456.19;;;-2.10;72.07
75627;BME280;67372;49.404;11.034;2023-04-06T04:30:17;98452.06;;;-2.12;70.90
75627;BME280;67372;49.404;11.034;2023-04-06T04:32:43;98457.16;;;-2.11;71.53
75627;BME280;67372;49.404;11.034;2023-04-06T04:35:09;98457.28;;;-2.12;71.00
75627;BME280;67372;49.404;11.034;2023-04-06T04:37:36;98452.75;;;-2.10;69.38
75627;BME280;67372;49.404;11.034;2023-04-06T04:40:02;98451.66;;;-2.08;68.92
75627;BME280;67372;49.404;11.034;2023-04-06T04:42:29;98453.47;;;-2.08;69.07
75627;BME280;67372;49.404;11.034;2023-04-06T04:44:55;98457.59;;;-2.06;67.73
75627;BME280;67372;49.404;11.034;2023-04-06T04:47:21;98458.28;;;-2.04;68.14
75627;BME280;67372;49.404;11.034;2023-04-06T04:49:48;98466.81;;;-2.02;67.89
75627;BME280;67372;49.404;11.034;2023-04-06T04:52:14;98457.06;;;-2.00;67.78
75627;BME280;67372;49.404;11.034;2023-04-06T04:54:40;98463.25;;;-2.01;67.65
75627;BME280;67372;49.404;11.034;2023-04-06T04:57:07;98458.84;;;-2.00;67.74
75627;BME280;67372;49.404;11.034;2023-04-06T04:59:34;98465.84;;;-2.01;68.12
75627;BME280;67372;49.404;11.034;2023-04-06T05:02:00;98465.72;;;-1.99;68.20
75627;BME280;67372;49.404;11.034;2023-04-06T05:04:27;98462.72;;;-1.95;67.81
75627;BME280;67372;49.404;11.034;2023-04-06T05:07:11;98465.75;;;-1.90;68.15
75627;BME280;67372;49.404;11.034;2023-04-06T05:09:38;98467.16;;;-1.86;67.92
75627;BME280;67372;49.404;11.034;2023-04-06T05:12:05;98461.53;;;-1.81;67.21
75627;BME280;67372;49.404;11.034;2023-04-06T05:14:31;98466.94;;;-1.73;66.38
75627;BME280;67372;49.404;11.034;2023-04-06T05:16:58;98468.03;;;-1.66;67.17
75627;BME280;67372;49.404;11.034;2023-04-06T05:19:24;98462.44;;;-1.61;66.53
75627;BME280;67372;49.404;11.034;2023-04-06T05:21:50;98462.72;;;-1.55;67.26
75627;BME280;67372;49.404;11.034;2023-04-06T05:24:16;98466.03;;;-1.52;66.96
75627;BME280;67372;49.404;11.034;2023-04-06T05:26:43;98462.88;;;-1.46;65.72
75627;BME280;67372;49.404;11.034;2023-04-06T05:29:10;98467.47;;;-1.39;66.17
75627;BME280;67372;49.404;11.034;2023-04-06T05:31:37;98466.22;;;-1.35;66.83
75627;BME280;67372;49.404;11.034;2023-04-06T05:34:03;98472.56;;;-1.28;66.83
75627;BME280;67372;49.404;11.034;2023-04-06T05:36:29;98470.91;;;-1.19;67.15
75627;BME280;67372;49.404;11.034;2023-04-06T05:38:56;98464.34;;;-1.13;66.94
75627;BME280;67372;49.404;11.034;2023-04-06T05:41:23;98465.44;;;-1.06;66.20
75627;BME280;67372;49.404;11.034;2023-04-06T05:43:49;98469.84;;;-0.97;66.20
75627;BME280;67372;49.404;11.034;2023-04-06T05:46:15;98465.88;;;-0.91;67.15
75627;BME280;67372;49.404;11.034;2023-04-06T05:48:42;98470.41;;;-0.84;66.39
75627;BME280;67372;49.404;11.034;2023-04-06T05:51:08;98473.00;;;-0.74;66.41
75627;BME280;67372;49.404;11.034;2023-04-06T05:53:34;98466.13;;;-0.66;66.90
75627;BME280;67372;49.404;11.034;2023-04-06T05:56:01;98466.25;;;-0.57;66.17
75627;BME280;67372;49.404;11.034;2023-04-06T05:58:28;98470.53;;;-0.47;66.73
75627;BME280;67372;49.404;11.034;2023-04-06T06:00:59;98469.41;;;-0.35;65.63
75627;BME280;67372;49.404;11.034;2023-04-06T06:03:26;98476.16;;;-0.22;65.65
75627;BME280;67372;49.404;11.034;2023-04-06T06:05:52;98479.41;;;-0.11;65.98
75627;BME280;67372;49.404;11.034;2023-04-06T06:08:18;98477.56;;;-0.01;65.12
75627;BME280;67372;49.404;11.034;2023-04-06T06:10:45;98481.84;;;0.10;65.12
75627;BME280;67372;49.404;11.034;2023-04-06T06:13:11;98483.19;;;0.24;64.28
75627;BME280;67372;49.404;11.034;2023-04-06T06:15:37;98483.97;;;0.34;64.22
75627;BME280;67372;49.404;11.034;2023-04-06T06:18:04;98486.38;;;0.45;64.17
75627;BME280;67372;49.404;11.034;2023-04-06T06:20:30;98478.31;;;0.56;63.56
75627;BME280;67372;49.404;11.034;2023-04-06T06:22:57;98476.31;;;0.68;63.94
75627;BME280;67372;49.404;11.034;2023-04-06T06:25:23;98479.06;;;0.76;63.53
75627;BME280;67372;49.404;11.034;2023-04-06T06:27:49;98485.81;;;0.79;63.07
75627;BME280;67372;49.404;11.034;2023-04-06T06:30:16;98481.91;;;0.83;62.43
75627;BME280;67372;49.404;11.034;2023-04-06T06:32:42;98476.31;;;0.96;62.89
75627;BME280;67372;49.404;11.034;2023-04-06T06:35:09;98482.00;;;1.09;61.97
75627;BME280;67372;49.404;11.034;2023-04-06T06:37:35;98480.16;;;1.19;61.98
75627;BME280;67372;49.404;11.034;2023-04-06T06:40:01;98479.59;;;1.33;61.73
75627;BME280;67372;49.404;11.034;2023-04-06T06:42:27;98484.66;;;1.44;61.07
75627;BME280;67372;49.404;11.034;2023-04-06T06:44:54;98485.06;;;1.58;61.18
75627;BME280;67372;49.404;11.034;2023-04-06T06:47:20;98482.06;;;1.70;60.52
75627;BME280;67372;49.404;11.034;2023-04-06T06:49:47;98484.09;;;1.84;60.39
75627;BME280;67372;49.404;11.034;2023-04-06T06:52:13;98481.25;;;1.96;60.14
75627;BME280;67372;49.404;11.034;2023-04-06T06:54:39;98486.06;;;2.08;58.80
75627;BME280;67372;49.404;11.034;2023-04-06T06:57:06;98485.66;;;2.21;59.22
75627;BME280;67372;49.404;11.034;2023-04-06T06:59:32;98484.22;;;2.35;58.31
75627;BME280;67372;49.404;11.034;2023-04-06T07:01:58;98489.75;;;2.50;57.82
75627;BME280;67372;49.404;11.034;2023-04-06T07:04:25;98484.88;;;2.63;58.27
75627;BME280;67372;49.404;11.034;2023-04-06T07:06:51;98482.94;;;2.73;57.36
75627;BME280;67372;49.404;11.034;2023-04-06T07:09:18;98484.44;;;2.84;56.63
75627;BME280;67372;49.404;11.034;2023-04-06T07:11:44;98486.44;;;2.98;56.86
75627;BME280;67372;49.404;11.034;2023-04-06T07:14:11;98480.41;;;3.14;56.57
75627;BME280;67372;49.404;11.034;2023-04-06T07:16:37;98473.16;;;3.24;56.11
75627;BME280;67372;49.404;11.034;2023-04-06T07:19:04;98478.28;;;3.42;55.09
75627;BME280;67372;49.404;11.034;2023-04-06T07:21:30;98471.22;;;3.58;55.95
75627;BME280;67372;49.404;11.034;2023-04-06T07:23:57;98475.63;;;3.74;55.31
75627;BME280;67372;49.404;11.034;2023-04-06T07:26:23;98469.69;;;3.88;54.00
75627;BME280;67372;49.404;11.034;2023-04-06T07:28:50;98470.16;;;4.00;53.48
75627;BME280;67372;49.404;11.034;2023-04-06T07:31:16;98472.13;;;4.14;53.55
75627;BME280;67372;49.404;11.034;2023-04-06T07:33:42;98477.03;;;4.25;52.98
75627;BME280;67372;49.404;11.034;2023-04-06T07:36:09;98478.16;;;4.39;53.14
75627;BME280;67372;49.404;11.034;2023-04-06T07:38:35;98483.56;;;4.54;51.95
75627;BME280;67372;49.404;11.034;2023-04-06T07:41:01;98482.34;;;4.65;51.83
75627;BME280;67372;49.404;11.034;2023-04-06T07:43:28;98480.34;;;4.75;51.14
75627;BME280;67372;49.404;11.034;2023-04-06T07:45:54;98489.53;;;4.87;50.13
75627;BME280;67372;49.404;11.034;2023-04-06T07:48:21;98480.22;;;4.99;51.10
75627;BME280;67372;49.404;11.034;2023-04-06T07:50:47;98477.00;;;5.12;51.23
75627;BME280;67372;49.404;11.034;2023-04-06T07:53:13;98472.97;;;5.24;50.31
75627;BME280;67372;49.404;11.034;2023-04-06T07:55:39;98471.19;;;5.39;49.70
75627;BME280;67372;49.404;11.034;2023-04-06T07:58:06;98472.34;;;5.60;50.54
75627;BME280;67372;49.404;11.034;2023-04-06T08:00:32;98467.75;;;5.76;50.81
75627;BME280;67372;49.404;11.034;2023-04-06T08:02:59;98471.44;;;5.90;50.23
75627;BME280;67372;49.404;11.034;2023-04-06T08:05:25;98468.84;;;6.05;49.48
75627;BME280;67372;49.404;11.034;2023-04-06T08:07:52;98472.97;;;6.22;49.46
75627;BME280;67372;49.404;11.034;2023-04-06T08:10:18;98478.63;;;6.34;48.56
75627;BME280;67372;49.404;11.034;2023-04-06T08:12:44;98474.53;;;6.46;46.97
75627;BME280;67372;49.404;11.034;2023-04-06T08:15:11;98466.47;;;6.54;46.73
75627;BME280;67372;49.404;11.034;2023-04-06T08:17:37;98464.19;;;6.66;48.00
75627;BME280;67372;49.404;11.034;2023-04-06T08:20:04;98468.38;;;6.75;46.62
75627;BME280;67372;49.404;11.034;2023-04-06T08:22:30;98475.59;;;6.81;46.17
75627;BME280;67372;49.404;11.034;2023-04-06T08:24:56;98476.31;;;6.90;47.27
75627;BME280;67372;49.404;11.034;2023-04-06T08:27:23;98475.38;;;6.97;45.65
75627;BME280;67372;49.404;11.034;2023-04-06T08:29:49;98472.16;;;7.02;45.13
75627;BME280;67372;49.404;11.034;2023-04-06T08:32:16;98468.84;;;7.15;45.03
75627;BME280;67372;49.404;11.034;2023-04-06T08:34:42;98457.72;;;7.26;47.07
75627;BME280;67372;49.404;11.034;2023-04-06T08:37:09;98461.09;;;7.34;45.96
75627;BME280;67372;49.404;11.034;2023-04-06T08:39:35;98462.84;;;7.49;45.42
75627;BME280;67372;49.404;11.034;2023-04-06T08:42:01;98465.38;;;7.57;44.47
75627;BME280;67372;49.404;11.034;2023-04-06T08:44:29;98464.47;;;7.71;44.58
75627;BME280;67372;49.404;11.034;2023-04-06T08:46:55;98456.56;;;7.78;42.83
75627;BME280;67372;49.404;11.034;2023-04-06T08:49:22;98460.75;;;7.87;43.73
75627;BME280;67372;49.404;11.034;2023-04-06T08:51:49;98461.59;;;7.94;43.31
75627;BME280;67372;49.404;11.034;2023-04-06T08:54:16;98457.78;;;8.03;43.46
75627;BME280;67372;49.404;11.034;2023-04-06T09:00:11;98460.75;;;8.21;43.25
75627;BME280;67372;49.404;11.034;2023-04-06T09:02:43;98452.91;;;8.35;43.32
75627;BME280;67372;49.404;11.034;2023-04-06T09:05:16;98456.84;;;8.45;40.26
75627;BME280;67372;49.404;11.034;2023-04-06T09:07:48;98452.22;;;8.54;40.05
75627;BME280;67372;49.404;11.034;2023-04-06T09:10:16;98445.28;;;8.59;42.11
75627;BME280;67372;49.404;11.034;2023-04-06T09:12:43;98450.00;;;8.64;40.51
75627;BME280;67372;49.404;11.034;2023-04-06T09:15:19;98450.69;;;8.79;41.96
75627;BME280;67372;49.404;11.034;2023-04-06T09:17:49;98444.97;;;8.89;40.63
75627;BME280;67372;49.404;11.034;2023-04-06T09:20:22;98441.53;;;8.95;38.68
75627;BME280;67372;49.404;11.034;2023-04-06T09:22:49;98444.41;;;9.00;38.77
75627;BME280;67372;49.404;11.034;2023-04-06T09:25:19;98437.28;;;9.07;37.35
75627;BME280;67372;49.404;11.034;2023-04-06T09:27:46;98438.31;;;9.13;38.48
75627;BME280;67372;49.404;11.034;2023-04-06T09:30:13;98435.03;;;9.17;38.34
75627;BME280;67372;49.404;11.034;2023-04-06T09:32:50;98430.16;;;9.28;39.28
75627;BME280;67372;49.404;11.034;2023-04-06T09:35:17;98438.16;;;9.41;37.57
75627;BME280;67372;49.404;11.034;2023-04-06T09:37:44;98421.75;;;9.44;37.58
75627;BME280;67372;49.404;11.034;2023-04-06T09:40:11;98430.59;;;9.51;38.91
75627;BME280;67372;49.404;11.034;2023-04-06T09:42:40;98421.38;;;9.60;36.83
75627;BME280;67372;49.404;11.034;2023-04-06T09:45:07;98429.34;;;9.60;37.29
75627;BME280;67372;49.404;11.034;2023-04-06T09:47:36;98418.72;;;9.60;35.68
75627;BME280;67372;49.404;11.034;2023-04-06T09:50:03;98417.88;;;9.66;38.35
75627;BME280;67372;49.404;11.034;2023-04-06T09:52:37;98408.88;;;9.74;36.81
75627;BME280;67372;49.404;11.034;2023-04-06T09:55:07;98418.50;;;9.88;37.55
75627;BME280;67372;49.404;11.034;2023-04-06T09:57:44;98419.50;;;10.07;34.70
75627;BME280;67372;49.404;11.034;2023-04-06T10:00:17;98410.47;;;10.28;36.10
75627;BME280;67372;49.404;11.034;2023-04-06T10:03:01;98415.75;;;10.48;34.63
75627;BME280;67372;49.404;11.034;2023-04-06T10:05:52;98420.41;;;10.65;34.45
75627;BME280;67372;49.404;11.034;2023-04-06T10:08:22;98414.41;;;10.76;36.33
75627;BME280;67372;49.404;11.034;2023-04-06T10:10:50;98411.09;;;10.81;36.29
75627;BME280;67372;49.404;11.034;2023-04-06T10:13:18;98407.22;;;10.77;35.77
75627;BME280;67372;49.404;11.034;2023-04-06T10:15:44;98412.56;;;10.77;34.98
75627;BME280;67372;49.404;11.034;2023-04-06T10:18:11;98405.59;;;10.76;34.28
75627;BME280;67372;49.404;11.034;2023-04-06T10:20:50;98406.78;;;10.80;34.02
75627;BME280;67372;49.404;11.034;2023-04-06T10:23:29;98400.81;;;10.85;34.29
75627;BME280;67372;49.404;11.034;2023-04-06T10:25:59;98399.56;;;10.87;33.61
75627;BME280;67372;49.404;11.034;2023-04-06T10:28:31;98394.44;;;10.92;35.21
75627;BME280;67372;49.404;11.034;2023-04-06T10:30:58;98394.63;;;10.91;32.82
75627;BME280;67372;49.404;11.034;2023-04-06T10:33:25;98394.13;;;10.69;32.06
75627;BME280;67372;49.404;11.034;2023-04-06T10:35:51;98387.25;;;10.35;32.78
75627;BME280;67372;49.404;11.034;2023-04-06T10:38:19;98387.91;;;10.30;32.50
75627;BME280;67372;49.404;11.034;2023-04-06T10:40:45;98392.78;;;10.40;34.08
75627;BME280;67372;49.404;11.034;2023-04-06T10:43:19;98394.16;;;10.56;33.23
75627;BME280;67372;49.404;11.034;2023-04-06T10:45:55;98386.72;;;10.64;32.68
75627;BME280;67372;49.404;11.034;2023-04-06T10:48:21;98386.91;;;10.76;33.59
75627;BME280;67372;49.404;11.034;2023-04-06T10:50:49;98379.06;;;10.81;32.23
75627;BME280;67372;49.404;11.034;2023-04-06T10:53:26;98374.50;;;10.88;31.13
75627;BME280;67372;49.404;11.034;2023-04-06T10:55:57;98367.31;;;10.95;32.55
75627;BME280;67372;49.404;11.034;2023-04-06T10:58:25;98368.84;;;11.10;33.92
75627;BME280;67372;49.404;11.034;2023-04-06T11:00:51;98363.47;;;11.16;32.84
75627;BME280;67372;49.404;11.034;2023-04-06T11:03:18;98369.38;;;11.25;32.77
75627;BME280;67372;49.404;11.034;2023-04-06T11:05:45;98371.00;;;11.26;32.85
75627;BME280;67372;49.404;11.034;2023-04-06T11:10:49;98351.63;;;11.37;31.00
75627;BME280;67372;49.404;11.034;2023-04-06T11:13:16;98356.47;;;11.47;33.00
75627;BME280;67372;49.404;11.034;2023-04-06T11:15:42;98352.53;;;11.49;31.20
75627;BME280;67372;49.404;11.034;2023-04-06T11:18:10;98351.50;;;11.50;30.62
75627;BME280;67372;49.404;11.034;2023-04-06T11:20:36;98350.25;;;11.53;32.65
75627;BME280;67372;49.404;11.034;2023-04-06T11:23:03;98350.03;;;11.54;32.73
75627;BME280;67372;49.404;11.034;2023-04-06T11:25:29;98346.50;;;11.60;31.29
75627;BME280;67372;49.404;11.034;2023-04-06T11:27:55;98335.97;;;11.65;31.20
75627;BME280;67372;49.404;11.034;2023-04-06T11:30:22;98334.25;;;11.71;31.65
75627;BME280;67372;49.404;11.034;2023-04-06T11:32:48;98339.88;;;11.88;31.04
75627;BME280;67372;49.404;11.034;2023-04-06T11:35:22;98337.00;;;11.89;31.10
75627;BME280;67372;49.404;11.034;2023-04-06T11:37:50;98342.38;;;11.83;30.40
75627;BME280;67372;49.404;11.034;2023-04-06T11:40:25;98340.34;;;11.85;31.51
75627;BME280;67372;49.404;11.034;2023-04-06T11:42:53;98339.06;;;11.87;31.15
75627;BME280;67372;49.404;11.034;2023-04-06T11:45:20;98329.41;;;11.86;29.20
75627;BME280;67372;49.404;11.034;2023-04-06T11:47:56;98321.19;;;11.63;28.91
75627;BME280;67372;49.404;11.034;2023-04-06T11:50:23;98318.88;;;11.66;30.02
75627;BME280;67372;49.404;11.034;2023-04-06T11:52:58;98316.59;;;11.70;30.39
75627;BME280;67372;49.404;11.034;2023-04-06T11:55:25;98325.19;;;11.72;30.88
75627;BME280;67372;49.404;11.034;2023-04-06T11:57:51;98318.13;;;11.84;31.61
75627;BME280;67372;49.404;11.034;2023-04-06T12:00:18;98314.03;;;12.00;31.71
75627;BME280;67372;49.404;11.034;2023-04-06T12:02:48;98308.41;;;12.08;30.45
75627;BME280;67372;49.404;11.034;2023-04-06T12:05:15;98306.47;;;12.15;28.81
75627;BME280;67372;49.404;11.034;2023-04-06T12:07:41;98310.69;;;12.23;30.39
75627;BME280;67372;49.404;11.034;2023-04-06T12:10:12;98313.44;;;12.35;30.14
75627;BME280;67372;49.404;11.034;2023-04-06T12:12:39;98309.09;;;12.52;30.67
75627;BME280;67372;49.404;11.034;2023-04-06T12:15:06;98306.19;;;12.53;28.05
75627;BME280;67372;49.404;11.034;2023-04-06T12:17:32;98303.50;;;12.53;27.68
75627;BME280;67372;49.404;11.034;2023-04-06T12:19:59;98294.47;;;12.54;30.59
75627;BME280;67372;49.404;11.034;2023-04-06T12:22:31;98299.63;;;12.68;30.73
75627;BME280;67372;49.404;11.034;2023-04-06T12:24:57;98298.72;;;12.74;30.46
75627;BME280;67372;49.404;11.034;2023-04-06T12:27:23;98297.13;;;12.84;30.09
75627;BME280;67372;49.404;11.034;2023-04-06T12:29:50;98294.94;;;12.93;29.70
75627;BME280;67372;49.404;11.034;2023-04-06T12:32:16;98294.38;;;13.03;29.86
75627;BME280;67372;49.404;11.034;2023-04-06T12:34:42;98285.25;;;12.92;30.19
75627;BME280;67372;49.404;11.034;2023-04-06T12:37:09;98290.38;;;12.94;29.80
75627;BME280;67372;49.404;11.034;2023-04-06T12:39:35;98284.56;;;12.97;30.34
75627;BME280;67372;49.404;11.034;2023-04-06T12:42:01;98292.53;;;13.03;29.72
75627;BME280;67372;49.404;11.034;2023-04-06T12:44:28;98287.75;;;13.05;29.94
75627;BME280;67372;49.404;11.034;2023-04-06T12:46:55;98284.50;;;13.03;29.88
75627;BME280;67372;49.404;11.034;2023-04-06T12:49:21;98284.50;;;13.15;29.13
75627;BME280;67372;49.404;11.034;2023-04-06T12:51:48;98273.19;;;13.13;29.29
75627;BME280;67372;49.404;11.034;2023-04-06T12:54:14;98280.88;;;13.09;29.35
75627;BME280;67372;49.404;11.034;2023-04-06T12:56:40;98274.91;;;12.96;29.15
75627;BME280;67372;49.404;11.034;2023-04-06T12:59:07;98278.06;;;12.93;28.74